• Join FlightAware (Why Join?)
  • Login
  • US Flag 
04:22PM EDT


 

Airport Tracker/Info


-or-


 

Live Flight TrackerFlight Track Log ✈ WSG1475 ✈ 24-Apr-2012 ✈ CJV7 - CYQT

Flight Track Log - Related Links

Times and Time Zones

All times are in EDT time to prevent confusion due to time zone crossing. See the WSG1475 flight status page for this flight to view local times or setup timezone preferences in your user account.

Time Position Orientation Groundspeed Altitude Reporting Facility
EDT Latitude Longitude Course Direction KTS MPH feet Rate Location/Type
04:16PM 52.3167 -88.6333 180° South 190 219 14,800  Level Winnipeg Center
04:17PM 52.2667 -88.6333 189° South 200 230 16,100 1,140 Climbing Winnipeg Center
04:18PM 52.2000 -88.6500 189° South 220 253 17,100 1,080 Climbing Winnipeg Center
04:19PM 52.1333 -88.6667 180° South 240 276 18,300 1,140 Climbing Winnipeg Center
04:20PM 52.0667 -88.6667 189° South 240 276 19,400 900 Climbing Winnipeg Center
04:21PM 52.0000 -88.6833 187° South 240 276 20,200 720 Climbing Winnipeg Center
04:23PM 51.8333 -88.7167 187° South 260 299 21,700 780 Climbing Winnipeg Center
04:24PM 51.7500 -88.7333 189° South 280 322 22,700 900 Climbing Winnipeg Center
04:25PM 51.6833 -88.7500 187° South 280 322 23,600 600 Climbing Winnipeg Center
04:26PM 51.6000 -88.7667 187° South 290 334 23,900 120 Climbing Winnipeg Center
04:27PM 51.5167 -88.7833 186° South 300 345 23,900  Level Winnipeg Center
04:28PM 51.4167 -88.8000 187° South 320 368 24,000  Climbing Winnipeg Center
04:29PM 51.3333 -88.8167 186° South 330 380 24,000  Level Winnipeg Center
04:30PM 51.2333 -88.8333 186° South 330 380 24,000  Level Winnipeg Center
04:31PM 51.1333 -88.8500 187° South 330 380 24,000  Level Winnipeg Center
04:32PM 51.0500 -88.8667 186° South 330 380 24,000  Level Winnipeg Center
04:33PM 50.9500 -88.8833 187° South 340 391 24,000  Level Winnipeg Center
04:34PM 50.8667 -88.9000 186° South 340 391 24,000  Level Winnipeg Center
04:35PM 50.7667 -88.9167 180° South 330 380 24,000  Level Winnipeg Center
04:36PM 50.6833 -88.9167 192° South 340 391 24,000  Level Winnipeg Center
04:37PM 50.5833 -88.9500 186° South 340 391 24,000  Level Winnipeg Center
04:38PM 50.4833 -88.9667 186° South 340 391 24,000  Level Winnipeg Center
04:39PM 50.3833 -88.9833 180° South 340 391 24,000  Level Winnipeg Center
04:40PM 50.3000 -88.9833 187° South 340 391 24,000  Level Winnipeg Center
04:41PM 50.2167 -89.0000 180° South 340 391 24,000  Level Winnipeg Center
04:42PM 50.1167 -89.0000 186° South 340 391 24,000  Level Winnipeg Center
04:43PM 50.0167 -89.0167 186° South 340 391 24,000  Level Winnipeg Center
04:44PM 49.9167 -89.0333 187° South 340 391 24,000  Level Winnipeg Center
04:45PM 49.8333 -89.0500 186° South 340 391 24,000  Level Winnipeg Center
04:46PM 49.7333 -89.0667 186° South 340 391 24,000  Level Winnipeg Center
04:47PM 49.6333 -89.0833 187° South 340 391 24,000  Level Winnipeg Center
04:48PM 49.5500 -89.1000 186° South 340 391 24,000 -420 Level Winnipeg Center
04:49PM 49.4500 -89.1167 180° South 350 403 23,200 -900 Descending Winnipeg Center
04:50PM 49.3500 -89.1167 191° South 370 426 22,200 -960 Descending Winnipeg Center
04:51PM 49.2333 -89.1500 186° South 370 426 21,300 -900 Descending Winnipeg Center
04:52PM 49.1333 -89.1667 180° South 360 414 20,400 -960 Descending Winnipeg Center
04:53PM 49.0500 -89.1667 191° South 360 414 19,400 -1,380 Descending Winnipeg Center
04:54PM 48.9333 -89.2000 180° South 360 414 17,700 -2,040 Descending Winnipeg Center
04:55PM 48.8500 -89.2000 186° South 340 391 15,400 -2,460 Descending Winnipeg Center
04:56PM 48.7500 -89.2167 188° South 330 380 12,800 -2,580 Descending Winnipeg Center
04:57PM 48.6667 -89.2333 189° South 310 357 10,300 -2,580 Descending Winnipeg Center
04:58PM 48.6000 -89.2500 188° South 280 322 7,700 -2,400 Descending Winnipeg Center
04:59PM 48.5167 -89.2667 214° Southwest 260 299 5,500 -1,860 Descending Winnipeg Center
05:00PM 48.4833 -89.3000 180° South 240 276 4,000 -960 Descending Winnipeg Center
05:01PM 48.4333 -89.3000 214° Southwest 200 230 3,600 -600 Descending Winnipeg Center
05:02PM 48.3833 -89.3500 192° South 190 219 2,900 -1,020 Descending Winnipeg Center
05:03PM 48.3333 -89.3667 63° Northeast 180 207 1,600 -1,080 Descending Winnipeg Center
05:04PM 48.3500 -89.3167 63° Northeast 120 138 800 -840 Descending Winnipeg Center